• Join FlightAware (Why Join?)
  • Login
  • US Flag 
08:23PM EST


 

Airport Tracker/Info


-or-


 

Live Flight TrackerFlight Track Log ✈ SLI2335 ✈ 15-Nov-2013 ✈ MMHO / HMO - MMCU / CUU

Flight Track Log - Related Links

Times and Time Zones

All times are in EST time to prevent confusion due to time zone crossing. See the SLI2335 flight status page for this flight to view local times or setup timezone preferences in your user account.

Time Position Orientation Groundspeed Altitude Reporting Facility
EST Latitude Longitude Course Direction KTS MPH feet Rate Location/Type
07:42PM 29.0454 -110.2255 94° East  Level Estimated
07:43PM 29.0401 -110.1433 94° East  Level Estimated
07:44PM 29.0347 -110.0611 94° East  Level Estimated
07:45PM 29.0293 -109.9789 94° East  Level Estimated
07:46PM 29.0238 -109.8967 94° East  Level Estimated
07:47PM 29.0183 -109.8146 94° East  Level Estimated
07:48PM 29.0128 -109.7324 94° East  Level Estimated
07:49PM 29.0071 -109.6503 94° East  Level Estimated
07:50PM 29.0015 -109.5682 94° East  Level Estimated
07:51PM 28.9957 -109.4860 95° East  Level Estimated
07:52PM 28.9900 -109.4039 95° East  Level Estimated
07:53PM 28.9841 -109.3218 95° East  Level Estimated
07:54PM 28.9783 -109.2397 95° East  Level Estimated
07:55PM 28.9724 -109.1576 95° East  Level Estimated
07:56PM 28.9664 -109.0755 95° East  Level Estimated
07:57PM 28.9604 -108.9935 95° East  Level Estimated
07:58PM 28.9543 -108.9114 95° East  Level Estimated
07:59PM 28.9482 -108.8294 95° East  Level Estimated
08:00PM 28.9420 -108.7473 95° East  Level Estimated
08:01PM 28.9358 -108.6653 95° East  Level Estimated
08:02PM 28.9295 -108.5833 95° East  Level Estimated
08:03PM 28.9232 -108.5013 95° East  Level Estimated
08:04PM 28.9168 -108.4193 95° East  Level Estimated
08:05PM 28.9104 -108.3373 95° East  Level Estimated
08:06PM 28.9039 -108.2553 95° East  Level Estimated
08:07PM 28.8974 -108.1733 95° East  Level Estimated
08:08PM 28.8909 -108.0914 95° East  Level Estimated
08:09PM 28.8843 -108.0094 95° East  Level Estimated
08:10PM 28.8776 -107.9275 95° East  Level Estimated
08:11PM 28.8709 -107.8456 95° East  Level Estimated
08:12PM 28.8641 -107.7636 95° East  Level Estimated
08:13PM 28.8573 -107.6817 95° East  Level Estimated
08:14PM 28.8505 -107.5998 95° East  Level Estimated
08:15PM 28.8435 -107.5180 95° East  Level Estimated
08:16PM 28.8366 -107.4361 96° East  Level Estimated
08:17PM 28.8296 -107.3542 96° East  Level Estimated
08:18PM 28.8225 -107.2724 96° East  Level Estimated
08:19PM 28.8154 -107.1905 96° East  Level Estimated
08:20PM 28.8083 -107.1087 96° East  Level Estimated
08:21PM 28.8010 -107.0269 96° East  Level Estimated
08:22PM 28.7938 -106.9451 96° East  Level Estimated
08:23PM 28.7865 -106.8633 96° East  Level Estimated
08:24PM 28.7791 -106.7815 96° East  Level Estimated
08:25PM 28.7717 -106.6997 96° East  Level Estimated
08:26PM 28.7643 -106.6180 96° East  Level Estimated
08:27PM 28.7568 -106.5362 96° East  Level Estimated
08:28PM 28.7492 -106.4545 96° East  Level Estimated
08:29PM 28.7416 -106.3728 96° East  Level Estimated
08:30PM 28.7340 -106.2911 96° East  Level Estimated
08:31PM 28.7263 -106.2094 96° East  Level Estimated
08:32PM 28.7185 -106.1277 96° East  Level Estimated
08:33PM 28.7107 -106.0460 96° East  Level Estimated
08:34PM 28.7029 -105.9646 96° East  Level Estimated
08:35PM 28.7029 -105.9646 28° Northeast  Level Estimated
08:36PM 28.7029 -105.9646 152° Southeast  Level Estimated
08:37PM 28.7029 -105.9646 28° Northeast  Level Estimated
08:38PM 28.7029 -105.9646 152° Southeast  Level Estimated
08:39PM 28.7029 -105.9646 28° Northeast  Level Estimated
08:40PM 28.7029 -105.9646 152° Southeast  Level Estimated
08:41PM 28.7029 -105.9646 28° Northeast  Level Estimated
08:42PM 28.7029 -105.9646 152° Southeast  Level Estimated
08:43PM 28.7029 -105.9646 28° Northeast  Level Estimated
08:44PM 28.7029 -105.9646 152° Southeast  Level Estimated
08:45PM 28.7029 -105.9646 28° Northeast  Level Estimated
08:46PM 28.7029 -105.9646 152° Southeast  Level Estimated
08:47PM 28.7029 -105.9646 28° Northeast  Level Estimated
08:48PM 28.7029 -105.9646 152° Southeast  Level Estimated
08:49PM 28.7029 -105.9646 28° Northeast  Level Estimated
08:50PM 28.7029 -105.9646 152° Southeast  Level Estimated